Time;durP1;ratioP1;P1;durP2;ratioP2;P2;SDS_P1;SDS_P2;PMS_P1;PMS_P2;Temp;Humidity;BMP_temperature;BMP_pressure;BME280_temperature;BME280_humidity;BME280_pressure;Samples;Min_cycle;Max_cycle;Signal;HPM_P1;HPM_P2
2023/03/24 00:01:02;;;;;;;8.15;1.40;;;;;;;;;;4917575;28;20395;-67
2023/03/24 00:03:31;;;;;;;4.10;1.70;;;;;;;;;;4940299;28;20092;-68
2023/03/24 00:06:01;;;;;;;3.47;1.48;;;;;;;;;;4973506;28;20093;-68
2023/03/24 00:08:31;;;;;;;2.85;1.40;;;;;;;;;;4920191;28;20087;-68
2023/03/24 00:11:03;;;;;;;4.43;1.50;;;;;;;;;;4947231;28;20046;-68
2023/03/24 00:13:39;;;;;;;5.75;1.38;;;;;;;;;;4943990;28;20069;-68
2023/03/24 00:16:13;;;;;;;3.70;1.23;;;;;;;;;;4938889;28;20137;-67
2023/03/24 00:18:40;;;;;;;4.22;1.52;;;;;;;;;;4907502;28;20061;-70
2023/03/24 00:21:09;;;;;;;5.88;1.58;;;;;;;;;;4957466;28;20062;-69
2023/03/24 00:23:36;;;;;;;3.20;1.40;;;;;;;;;;4937539;28;20047;-69
2023/03/24 00:26:11;;;;;;;4.50;1.50;;;;;;;;;;4960303;28;20067;-69
2023/03/24 00:28:39;;;;;;;4.70;1.45;;;;;;;;;;4927854;28;20082;-68
2023/03/24 00:31:07;;;;;;;2.83;1.38;;;;;;;;;;4952544;28;20112;-69
2023/03/24 00:33:34;;;;;;;4.38;1.27;;;;;;;;;;4962624;28;20050;-69
2023/03/24 00:36:01;;;;;;;4.30;1.67;;;;;;;;;;4967491;28;20081;-68
2023/03/24 00:38:33;;;;;;;4.75;1.55;;;;;;;;;;4944282;28;20139;-69
2023/03/24 00:41:02;;;;;;;5.22;1.50;;;;;;;;;;4943616;28;20062;-70
2023/03/24 00:43:33;;;;;;;4.57;1.55;;;;;;;;;;4973422;28;20149;-68
2023/03/24 00:46:02;;;;;;;3.42;1.40;;;;;;;;;;4983161;28;20062;-67
2023/03/24 00:48:37;;;;;;;3.85;1.48;;;;;;;;;;4946152;28;20132;-68
2023/03/24 00:51:04;;;;;;;2.60;1.25;;;;;;;;;;4941250;28;20129;-70
2023/03/24 00:53:31;;;;;;;5.40;1.40;;;;;;;;;;4977282;28;20078;-69
2023/03/24 00:55:58;;;;;;;2.42;1.30;;;;;;;;;;4953353;28;20062;-68
2023/03/24 00:58:28;;;;;;;5.50;1.30;;;;;;;;;;4948195;28;20097;-68
2023/03/24 01:00:59;;;;;;;5.63;1.40;;;;;;;;;;4945030;28;20058;-68
2023/03/24 01:03:29;;;;;;;3.97;1.45;;;;;;;;;;4914830;28;20063;-68
2023/03/24 01:05:56;;;;;;;4.43;1.50;;;;;;;;;;4944020;28;20059;-68
2023/03/24 01:08:27;;;;;;;3.10;1.27;;;;;;;;;;4940728;28;20141;-69
2023/03/24 01:10:54;;;;;;;2.47;1.25;;;;;;;;;;4914928;28;20054;-68
2023/03/24 01:13:25;;;;;;;4.45;1.60;;;;;;;;;;4949702;28;21348;-69
2023/03/24 01:15:51;;;;;;;4.82;1.48;;;;;;;;;;4952801;28;20114;-69
2023/03/24 01:18:18;;;;;;;4.95;1.58;;;;;;;;;;4956869;28;20137;-68
2023/03/24 01:20:47;;;;;;;3.25;1.40;;;;;;;;;;4951592;28;20051;-68
2023/03/24 01:23:15;;;;;;;4.20;1.50;;;;;;;;;;4951517;28;20046;-66
2023/03/24 01:25:44;;;;;;;4.07;1.50;;;;;;;;;;4946968;28;20077;-67
2023/03/24 01:28:10;;;;;;;3.30;1.40;;;;;;;;;;4956339;28;20070;-67
2023/03/24 01:30:37;;;;;;;3.05;1.40;;;;;;;;;;4946650;28;20070;-69
2023/03/24 01:33:04;;;;;;;3.53;1.50;;;;;;;;;;4940679;28;20046;-68
2023/03/24 01:35:30;;;;;;;3.95;1.40;;;;;;;;;;4972677;28;20138;-69
2023/03/24 01:37:58;;;;;;;2.90;1.40;;;;;;;;;;4928943;28;20055;-68
2023/03/24 01:40:26;;;;;;;4.32;1.42;;;;;;;;;;4966979;28;20118;-68
2023/03/24 01:42:53;;;;;;;3.63;1.30;;;;;;;;;;4956479;28;20134;-69
2023/03/24 01:45:41;;;;;;;3.45;1.40;;;;;;;;;;4932535;28;20062;-68
2023/03/24 01:48:08;;;;;;;2.30;1.42;;;;;;;;;;4967231;28;20124;-67
2023/03/24 01:50:34;;;;;;;3.45;1.70;;;;;;;;;;4949315;28;20054;-68
2023/03/24 01:53:02;;;;;;;3.28;1.30;;;;;;;;;;4980552;28;20086;-70
2023/03/24 01:55:31;;;;;;;4.53;1.92;;;;;;;;;;4956805;28;20165;-68
2023/03/24 01:58:00;;;;;;;2.75;1.27;;;;;;;;;;4945701;28;20061;-68
2023/03/24 02:00:26;;;;;;;4.70;1.58;;;;;;;;;;4962410;28;20059;-69
2023/03/24 02:02:57;;;;;;;2.85;1.25;;;;;;;;;;4927414;28;20058;-68
2023/03/24 02:05:25;;;;;;;4.60;1.50;;;;;;;;;;4936664;28;20061;-67
2023/03/24 02:07:52;;;;;;;;;;;;;;;;;;4954660;28;20118;-68
2023/03/24 02:10:20;;;;;;;2.65;1.33;;;;;;;;;;4960252;28;19996;-67
2023/03/24 02:12:47;;;;;;;;;;;;;;;;;;4959929;28;20109;-66
2023/03/24 02:15:14;;;;;;;3.25;1.40;;;;;;;;;;4981379;28;19953;-67
2023/03/24 02:17:50;;;;;;;2.58;1.30;;;;;;;;;;4953490;28;20167;-66
2023/03/24 02:20:28;;;;;;;3.42;1.50;;;;;;;;;;4939682;28;20050;-67
2023/03/24 02:23:13;;;;;;;2.97;1.40;;;;;;;;;;4941337;28;20122;-66
2023/03/24 02:26:04;;;;;;;5.32;1.80;;;;;;;;;;4944598;28;20066;-66
2023/03/24 02:28:38;;;;;;;3.78;1.50;;;;;;;;;;4927513;28;20069;-67
2023/03/24 02:31:24;;;;;;;3.60;1.48;;;;;;;;;;4976539;28;20148;-67
2023/03/24 02:34:21;;;;;;;3.53;1.38;;;;;;;;;;4969338;28;20117;-67
2023/03/24 02:37:20;;;;;;;5.30;1.58;;;;;;;;;;4954703;28;20141;-67
2023/03/24 02:39:55;;;;;;;4.95;1.55;;;;;;;;;;4881423;29;20107;-67
2023/03/24 02:42:25;;;;;;;2.42;1.30;;;;;;;;;;4898142;29;20067;-66
2023/03/24 02:44:55;;;;;;;3.03;1.48;;;;;;;;;;4877608;29;20064;-67
2023/03/24 02:47:25;;;;;;;3.10;1.48;;;;;;;;;;4890288;29;20330;-66
2023/03/24 02:49:55;;;;;;;2.40;1.33;;;;;;;;;;4890365;29;20060;-67
2023/03/24 02:52:24;;;;;;;3.97;1.65;;;;;;;;;;4869810;29;20060;-69
2023/03/24 02:54:50;;;;;;;;;;;;;;;;;;4877383;29;20056;-68
2023/03/24 02:57:22;;;;;;;3.58;1.23;;;;;;;;;;4889527;29;19927;-68
2023/03/24 02:59:52;;;;;;;7.90;1.58;;;;;;;;;;4891183;29;20070;-66
2023/03/24 03:02:20;;;;;;;2.92;1.20;;;;;;;;;;4897635;29;20097;-67
2023/03/24 03:04:49;;;;;;;3.03;1.40;;;;;;;;;;4843261;29;20079;-67
2023/03/24 03:07:20;;;;;;;1.83;1.10;;;;;;;;;;4892549;29;20067;-66
2023/03/24 03:09:49;;;;;;;3.63;1.50;;;;;;;;;;4899585;28;20063;-67
2023/03/24 03:12:16;;;;;;;5.45;1.23;;;;;;;;;;4947336;28;20054;-68
2023/03/24 03:14:48;;;;;;;2.63;1.23;;;;;;;;;;4949590;28;20068;-67
2023/03/24 03:17:16;;;;;;;2.72;1.10;;;;;;;;;;4955404;28;20113;-66
2023/03/24 03:19:45;;;;;;;3.47;1.27;;;;;;;;;;4967016;28;20058;-67
2023/03/24 03:22:15;;;;;;;2.10;0.95;;;;;;;;;;4961048;28;20086;-67
2023/03/24 03:24:44;;;;;;;5.50;1.00;;;;;;;;;;4946104;28;20078;-67
2023/03/24 03:27:13;;;;;;;1.83;1.10;;;;;;;;;;4974644;28;20152;-69
2023/03/24 03:29:41;;;;;;;2.33;0.90;;;;;;;;;;4989833;28;20054;-66
2023/03/24 03:32:11;;;;;;;2.33;1.00;;;;;;;;;;4976110;28;20171;-67
2023/03/24 03:34:40;;;;;;;1.40;0.90;;;;;;;;;;4950628;28;20057;-68
2023/03/24 03:37:10;;;;;;;2.67;0.90;;;;;;;;;;5007013;28;20065;-68
2023/03/24 03:39:38;;;;;;;1.20;0.77;;;;;;;;;;4964320;28;20082;-69
2023/03/24 03:42:05;;;;;;;1.48;0.75;;;;;;;;;;4982221;28;20058;-68
2023/03/24 03:44:32;;;;;;;1.48;0.85;;;;;;;;;;4967157;28;20058;-68
2023/03/24 03:46:58;;;;;;;1.25;0.63;;;;;;;;;;4973154;28;20205;-67
2023/03/24 03:49:26;;;;;;;2.47;0.90;;;;;;;;;;4993234;28;20089;-66
2023/03/24 03:51:54;;;;;;;3.92;0.68;;;;;;;;;;4971825;28;20051;-68
2023/03/24 03:54:21;;;;;;;3.65;0.73;;;;;;;;;;4958744;28;20062;-67
2023/03/24 03:56:49;;;;;;;2.53;0.90;;;;;;;;;;4959635;28;20054;-68
2023/03/24 03:59:26;;;;;;;2.00;0.77;;;;;;;;;;4978749;28;20064;-66
2023/03/24 04:01:53;;;;;;;3.60;0.73;;;;;;;;;;4974434;28;20125;-68
2023/03/24 04:04:37;;;;;;;4.22;0.80;;;;;;;;;;4964596;28;20058;-69
2023/03/24 04:07:07;;;;;;;5.47;0.77;;;;;;;;;;4972641;28;20064;-68
2023/03/24 04:09:37;;;;;;;4.80;0.70;;;;;;;;;;4979159;28;20147;-68
2023/03/24 04:12:30;;;;;;;4.55;0.85;;;;;;;;;;4980997;28;20106;-67
2023/03/24 04:15:05;;;;;;;1.90;0.60;;;;;;;;;;4976925;28;20053;-66
2023/03/24 04:17:39;;;;;;;2.20;0.60;;;;;;;;;;4977909;28;20065;-66
2023/03/24 04:20:13;;;;;;;1.50;0.80;;;;;;;;;;4980043;28;20152;-67
2023/03/24 04:22:45;;;;;;;1.60;0.80;;;;;;;;;;4986368;28;20061;-66
2023/03/24 04:25:15;;;;;;;1.70;0.80;;;;;;;;;;4976970;28;20140;-67
2023/03/24 04:27:46;;;;;;;4.28;0.85;;;;;;;;;;4993977;28;20141;-66
2023/03/24 04:30:15;;;;;;;3.35;0.90;;;;;;;;;;4978689;28;20209;-67
2023/03/24 04:32:46;;;;;;;3.50;0.80;;;;;;;;;;4950018;28;20066;-68
2023/03/24 04:35:25;;;;;;;3.92;0.98;;;;;;;;;;4971303;28;20151;-66
2023/03/24 04:37:52;;;;;;;3.15;0.90;;;;;;;;;;4966529;28;20058;-66
2023/03/24 04:40:21;;;;;;;3.95;1.20;;;;;;;;;;4993686;28;20073;-66
2023/03/24 04:42:51;;;;;;;3.70;0.93;;;;;;;;;;4992970;28;20140;-67
2023/03/24 04:45:18;;;;;;;4.57;0.93;;;;;;;;;;4969450;28;20112;-66
2023/03/24 04:47:47;;;;;;;4.45;0.98;;;;;;;;;;4976416;28;20132;-66
2023/03/24 04:50:29;;;;;;;3.80;0.70;;;;;;;;;;4990120;28;20058;-67
2023/03/24 04:52:56;;;;;;;7.97;1.10;;;;;;;;;;4981382;28;20077;-67
2023/03/24 04:55:31;;;;;;;4.55;0.98;;;;;;;;;;4970017;28;20066;-66
2023/03/24 04:57:57;;;;;;;9.10;0.98;;;;;;;;;;4982571;28;20240;-66
2023/03/24 05:00:24;;;;;;;5.13;0.98;;;;;;;;;;4989176;28;20062;-67
2023/03/24 05:02:51;;;;;;;6.97;1.05;;;;;;;;;;4977566;28;21060;-68
2023/03/24 05:05:19;;;;;;;9.48;2.00;;;;;;;;;;4965104;28;20061;-68
2023/03/24 05:07:45;;;;;;;6.50;1.00;;;;;;;;;;4971691;28;20089;-67
2023/03/24 05:10:12;;;;;;;6.78;1.10;;;;;;;;;;4956440;28;20102;-66
2023/03/24 05:12:38;;;;;;;6.47;1.38;;;;;;;;;;4949155;28;20126;-67
2023/03/24 05:15:05;;;;;;;5.80;1.00;;;;;;;;;;4948254;28;20130;-66
2023/03/24 05:17:32;;;;;;;6.88;1.08;;;;;;;;;;4957536;28;20063;-66
2023/03/24 05:19:58;;;;;;;8.05;1.10;;;;;;;;;;4954181;28;20073;-67
2023/03/24 05:22:26;;;;;;;4.30;0.90;;;;;;;;;;4936841;28;20061;-67
2023/03/24 05:24:53;;;;;;;2.10;0.75;;;;;;;;;;4942123;28;20062;-66
2023/03/24 05:27:20;;;;;;;4.40;0.80;;;;;;;;;;4936210;28;20062;-67
2023/03/24 05:29:46;;;;;;;7.07;0.93;;;;;;;;;;4926672;28;20055;-66
2023/03/24 05:32:12;;;;;;;4.07;0.70;;;;;;;;;;4933776;28;20134;-65
2023/03/24 05:34:39;;;;;;;4.57;1.05;;;;;;;;;;4911041;28;20302;-66
2023/03/24 05:37:08;;;;;;;4.57;0.80;;;;;;;;;;4938692;28;20058;-67
2023/03/24 05:39:37;;;;;;;7.97;1.38;;;;;;;;;;4931558;28;20138;-67
2023/03/24 05:42:04;;;;;;;4.13;1.27;;;;;;;;;;4928907;28;20077;-67
2023/03/24 05:44:30;;;;;;;9.75;1.67;;;;;;;;;;4928195;28;20057;-68
2023/03/24 05:46:57;;;;;;;5.78;0.95;;;;;;;;;;4946113;28;20059;-68
2023/03/24 05:49:23;;;;;;;5.60;1.13;;;;;;;;;;4946261;28;20058;-68
2023/03/24 05:51:56;;;;;;;7.57;1.17;;;;;;;;;;4957967;28;20066;-67
2023/03/24 05:54:22;;;;;;;5.75;1.40;;;;;;;;;;4941828;28;20061;-68
2023/03/24 05:56:50;;;;;;;4.43;1.10;;;;;;;;;;4947666;28;20054;-64
2023/03/24 05:59:20;;;;;;;6.07;1.53;;;;;;;;;;4950302;28;20077;-67
2023/03/24 06:01:47;;;;;;;8.70;1.40;;;;;;;;;;4918706;28;20055;-68
2023/03/24 06:04:19;;;;;;;6.03;1.40;;;;;;;;;;4955733;28;20058;-67
2023/03/24 06:06:48;;;;;;;8.77;1.60;;;;;;;;;;4940335;28;20118;-66
2023/03/24 06:09:15;;;;;;;6.25;1.52;;;;;;;;;;4972880;28;20077;-65
2023/03/24 06:11:44;;;;;;;6.82;1.45;;;;;;;;;;4969402;28;20131;-66
2023/03/24 06:14:14;;;;;;;7.53;1.40;;;;;;;;;;4952216;28;20126;-66
2023/03/24 06:16:41;;;;;;;8.23;1.60;;;;;;;;;;4949594;28;20134;-66
2023/03/24 06:19:08;;;;;;;6.72;1.65;;;;;;;;;;4952004;28;20118;-67
2023/03/24 06:21:34;;;;;;;5.68;1.48;;;;;;;;;;4948299;28;20054;-66
2023/03/24 06:24:02;;;;;;;5.45;1.70;;;;;;;;;;4923268;28;20077;-66
2023/03/24 06:26:32;;;;;;;3.08;1.13;;;;;;;;;;4927579;28;20136;-67
2023/03/24 06:29:00;;;;;;;8.90;1.50;;;;;;;;;;4984432;28;20117;-67
2023/03/24 06:31:29;;;;;;;;;;;;;;;;;;4946354;28;20159;-67
2023/03/24 06:33:57;;;;;;;10.35;1.67;;;;;;;;;;4973204;28;19930;-67
2023/03/24 06:36:25;;;;;;;7.22;1.73;;;;;;;;;;4929043;28;20119;-67
2023/03/24 06:38:51;;;;;;;9.38;2.13;;;;;;;;;;4951401;28;20061;-67
2023/03/24 06:41:18;;;;;;;6.93;1.60;;;;;;;;;;4953506;28;20066;-65
2023/03/24 06:43:44;;;;;;;6.25;1.65;;;;;;;;;;4953112;28;20146;-67
2023/03/24 06:46:11;;;;;;;8.80;1.85;;;;;;;;;;4945561;28;20055;-65
2023/03/24 06:48:38;;;;;;;5.18;1.63;;;;;;;;;;4928028;28;20138;-68
2023/03/24 06:51:09;;;;;;;4.85;1.85;;;;;;;;;;4929667;28;20085;-67
2023/03/24 06:53:44;;;;;;;2.90;1.27;;;;;;;;;;4956290;28;20109;-66
2023/03/24 06:56:19;;;;;;;5.07;1.73;;;;;;;;;;4926052;28;20050;-65
2023/03/24 06:58:48;;;;;;;9.63;1.88;;;;;;;;;;4966539;28;20054;-65
2023/03/24 07:01:15;;;;;;;4.57;1.65;;;;;;;;;;4959268;28;20058;-66
2023/03/24 07:03:42;;;;;;;6.25;1.95;;;;;;;;;;4946379;28;20058;-65
2023/03/24 07:06:09;;;;;;;9.18;1.90;;;;;;;;;;4914597;28;20050;-65
2023/03/24 07:08:36;;;;;;;14.90;2.30;;;;;;;;;;4928457;28;20153;-67
2023/03/24 07:11:03;;;;;;;8.25;1.95;;;;;;;;;;4982626;28;20041;-65
2023/03/24 07:13:29;;;;;;;6.35;1.58;;;;;;;;;;4984260;28;20115;-66
2023/03/24 07:16:02;;;;;;;3.95;1.42;;;;;;;;;;4945153;28;20088;-66
2023/03/24 07:18:37;;;;;;;5.13;1.63;;;;;;;;;;4966152;28;20076;-66
2023/03/24 07:21:04;;;;;;;7.13;1.63;;;;;;;;;;4971158;28;20141;-66
2023/03/24 07:23:32;;;;;;;12.00;1.98;;;;;;;;;;4967156;28;20058;-64
2023/03/24 07:25:58;;;;;;;8.77;2.20;;;;;;;;;;4962194;28;20061;-67
2023/03/24 07:28:25;;;;;;;10.07;1.70;;;;;;;;;;4955042;28;20069;-68
2023/03/24 07:30:51;;;;;;;4.28;1.58;;;;;;;;;;4949840;28;21186;-66
2023/03/24 07:33:18;;;;;;;7.18;1.58;;;;;;;;;;4983753;28;20077;-65
2023/03/24 07:35:48;;;;;;;6.55;1.73;;;;;;;;;;4952163;28;20067;-67
2023/03/24 07:38:17;;;;;;;4.45;1.50;;;;;;;;;;4979468;28;20061;-67
2023/03/24 07:40:47;;;;;;;10.27;1.45;;;;;;;;;;4965206;28;20160;-66
2023/03/24 07:43:17;;;;;;;4.20;1.42;;;;;;;;;;4992830;28;20144;-68
2023/03/24 07:45:46;;;;;;;9.48;1.95;;;;;;;;;;4953137;28;20073;-67
2023/03/24 07:48:15;;;;;;;7.60;1.33;;;;;;;;;;4978813;28;20064;-65
2023/03/24 07:50:44;;;;;;;7.43;2.00;;;;;;;;;;4970580;28;20058;-68
2023/03/24 07:53:13;;;;;;;3.90;1.33;;;;;;;;;;4997189;28;20129;-68
2023/03/24 07:55:40;;;;;;;5.45;1.60;;;;;;;;;;4954006;28;20145;-67
2023/03/24 07:58:08;;;;;;;5.05;1.48;;;;;;;;;;4966143;28;20063;-66
2023/03/24 08:00:37;;;;;;;5.35;1.30;;;;;;;;;;4976475;28;20183;-66
2023/03/24 08:03:08;;;;;;;8.30;1.65;;;;;;;;;;4949604;28;20098;-68
2023/03/24 08:05:36;;;;;;;8.63;1.48;;;;;;;;;;4956787;28;20066;-68
2023/03/24 08:08:05;;;;;;;9.25;1.50;;;;;;;;;;4991450;28;20076;-67
2023/03/24 08:10:34;;;;;;;10.27;2.33;;;;;;;;;;4974371;28;20282;-66
2023/03/24 08:13:03;;;;;;;6.10;1.58;;;;;;;;;;4973711;28;20065;-68
2023/03/24 08:15:31;;;;;;;7.10;1.63;;;;;;;;;;4940634;28;20050;-66
2023/03/24 08:17:57;;;;;;;8.50;1.60;;;;;;;;;;4966878;28;20065;-66
2023/03/24 08:20:25;;;;;;;10.30;1.80;;;;;;;;;;4975486;28;20057;-66
2023/03/24 08:22:53;;;;;;;8.88;1.58;;;;;;;;;;4981097;28;20054;-66
2023/03/24 08:25:23;;;;;;;9.45;1.75;;;;;;;;;;4981090;28;20058;-66
2023/03/24 08:27:49;;;;;;;12.20;2.28;;;;;;;;;;4972336;28;20068;-68
2023/03/24 08:30:26;;;;;;;7.90;1.40;;;;;;;;;;4983337;28;20184;-66
2023/03/24 08:32:58;;;;;;;5.20;1.45;;;;;;;;;;4977073;28;20113;-68
2023/03/24 08:35:24;;;;;;;;;;;;;;;;;;4962240;28;20117;-65
2023/03/24 08:37:51;;;;;;;5.18;1.48;;;;;;;;;;4981548;28;19926;-65
2023/03/24 08:40:22;;;;;;;11.93;1.60;;;;;;;;;;4975846;28;20062;-67
2023/03/24 08:43:02;;;;;;;7.47;1.63;;;;;;;;;;4973053;28;20053;-68
2023/03/24 08:45:30;;;;;;;10.70;2.10;;;;;;;;;;4967593;28;20065;-67
2023/03/24 08:48:00;;;;;;;10.55;1.98;;;;;;;;;;4975482;28;20192;-66
2023/03/24 08:50:27;;;;;;;7.70;1.70;;;;;;;;;;4959733;28;20057;-67
2023/03/24 08:52:54;;;;;;;8.55;1.48;;;;;;;;;;4975631;28;20053;-66
2023/03/24 08:55:21;;;;;;;6.20;1.60;;;;;;;;;;4961688;28;20062;-66
2023/03/24 08:57:51;;;;;;;9.80;1.83;;;;;;;;;;4954735;28;20060;-69
2023/03/24 09:00:21;;;;;;;9.68;2.03;;;;;;;;;;4979502;28;20054;-66
2023/03/24 09:02:48;;;;;;;3.70;1.65;;;;;;;;;;4974913;28;20069;-68
2023/03/24 09:05:19;;;;;;;10.30;2.17;;;;;;;;;;4969944;28;20049;-69
2023/03/24 09:07:46;;;;;;;7.22;1.98;;;;;;;;;;4992182;28;20057;-68
2023/03/24 09:10:14;;;;;;;6.25;1.63;;;;;;;;;;4973101;28;20051;-67
2023/03/24 09:12:50;;;;;;;8.93;1.88;;;;;;;;;;4981856;28;20306;-68
2023/03/24 09:15:17;;;;;;;7.25;1.88;;;;;;;;;;4934296;28;20060;-67
2023/03/24 09:17:43;;;;;;;11.07;1.75;;;;;;;;;;4990141;28;20200;-69
2023/03/24 09:20:11;;;;;;;7.55;1.75;;;;;;;;;;4953773;28;20226;-68
2023/03/24 09:22:50;;;;;;;8.68;1.85;;;;;;;;;;4946777;28;20054;-68
2023/03/24 09:25:17;;;;;;;7.75;1.65;;;;;;;;;;4962931;28;20058;-66
2023/03/24 09:27:48;;;;;;;7.78;1.80;;;;;;;;;;4963041;28;20108;-67
2023/03/24 09:30:17;;;;;;;7.90;1.63;;;;;;;;;;4955681;28;20058;-67
2023/03/24 09:32:46;;;;;;;7.80;1.50;;;;;;;;;;4947652;28;20047;-67
2023/03/24 09:35:13;;;;;;;8.30;1.45;;;;;;;;;;4953677;28;20123;-68
2023/03/24 09:37:41;;;;;;;7.65;1.50;;;;;;;;;;4972445;28;20058;-66
2023/03/24 09:40:15;;;;;;;7.25;1.63;;;;;;;;;;4970456;28;20050;-65
2023/03/24 09:42:42;;;;;;;11.07;1.70;;;;;;;;;;4957456;28;20107;-66
2023/03/24 09:45:13;;;;;;;13.50;1.67;;;;;;;;;;4981181;28;20140;-69
2023/03/24 09:47:43;;;;;;;7.40;1.85;;;;;;;;;;4968608;28;20065;-68
2023/03/24 09:50:18;;;;;;;6.05;1.35;;;;;;;;;;4957763;28;20058;-68
2023/03/24 09:52:51;;;;;;;7.43;1.40;;;;;;;;;;4969709;28;20963;-66
2023/03/24 09:55:24;;;;;;;6.38;1.50;;;;;;;;;;4972600;28;20133;-66
2023/03/24 09:57:51;;;;;;;5.10;1.23;;;;;;;;;;4958164;28;20050;-68
2023/03/24 10:00:22;;;;;;;9.20;1.70;;;;;;;;;;4994292;28;20066;-68
2023/03/24 10:02:49;;;;;;;7.10;1.95;;;;;;;;;;4986204;28;20318;-66
2023/03/24 10:05:16;;;;;;;5.45;1.50;;;;;;;;;;4967054;28;20061;-66
2023/03/24 10:07:47;;;;;;;5.43;1.50;;;;;;;;;;4957964;28;20144;-69
2023/03/24 10:10:18;;;;;;;3.50;1.52;;;;;;;;;;4970491;28;20089;-67
2023/03/24 10:12:48;;;;;;;6.53;1.70;;;;;;;;;;4967103;28;20204;-66
2023/03/24 10:15:19;;;;;;;5.88;1.30;;;;;;;;;;4977762;28;20077;-64
2023/03/24 10:17:51;;;;;;;5.03;1.40;;;;;;;;;;5003756;28;20056;-65
2023/03/24 10:20:26;;;;;;;13.23;1.80;;;;;;;;;;5001333;28;20054;-66
2023/03/24 10:22:57;;;;;;;5.53;1.15;;;;;;;;;;4982702;28;20135;-66
2023/03/24 10:25:25;;;;;;;5.93;1.42;;;;;;;;;;4948315;28;20074;-66
2023/03/24 10:27:57;;;;;;;4.97;1.15;;;;;;;;;;4983302;28;20061;-67
2023/03/24 10:30:25;;;;;;;6.20;1.48;;;;;;;;;;4977276;28;20108;-68
2023/03/24 10:32:53;;;;;;;6.47;1.50;;;;;;;;;;4979545;28;20823;-67
2023/03/24 10:35:22;;;;;;;4.55;1.27;;;;;;;;;;4932549;28;20065;-69
2023/03/24 10:37:49;;;;;;;6.00;1.77;;;;;;;;;;4975263;28;20058;-68
2023/03/24 10:40:18;;;;;;;6.13;1.38;;;;;;;;;;5013638;28;20073;-67
2023/03/24 10:42:45;;;;;;;4.63;1.35;;;;;;;;;;4997120;28;20069;-66
2023/03/24 10:45:14;;;;;;;5.65;1.33;;;;;;;;;;4968958;28;20082;-67
2023/03/24 10:47:41;;;;;;;5.90;1.38;;;;;;;;;;4987263;28;20052;-67
2023/03/24 10:50:09;;;;;;;5.78;1.52;;;;;;;;;;5014223;28;20091;-67
2023/03/24 10:52:40;;;;;;;5.35;1.30;;;;;;;;;;4991689;28;20080;-65
2023/03/24 10:55:13;;;;;;;4.28;1.35;;;;;;;;;;4971719;28;20389;-68
2023/03/24 10:57:42;;;;;;;6.20;1.50;;;;;;;;;;5008718;28;20159;-65
2023/03/24 11:00:16;;;;;;;11.50;1.67;;;;;;;;;;5002326;28;20144;-68
2023/03/24 11:02:52;;;;;;;4.30;1.08;;;;;;;;;;5001132;28;20053;-66
2023/03/24 11:05:21;;;;;;;6.05;1.50;;;;;;;;;;4968238;28;20049;-66
2023/03/24 11:07:49;;;;;;;6.43;1.10;;;;;;;;;;5015702;28;20061;-69
2023/03/24 11:10:17;;;;;;;5.75;1.30;;;;;;;;;;4989996;28;20065;-68
2023/03/24 11:13:01;;;;;;;11.93;1.48;;;;;;;;;;4999828;28;20093;-66
2023/03/24 11:15:29;;;;;;;5.15;1.30;;;;;;;;;;4999426;28;20282;-68
2023/03/24 11:18:02;;;;;;;3.03;1.20;;;;;;;;;;5010000;28;20060;-69
2023/03/24 11:20:30;;;;;;;4.13;1.27;;;;;;;;;;4962235;28;20061;-69
2023/03/24 11:23:07;;;;;;;4.57;1.23;;;;;;;;;;4953881;28;20053;-67
2023/03/24 11:25:35;;;;;;;3.33;1.20;;;;;;;;;;4986869;28;20057;-67
2023/03/24 11:28:02;;;;;;;;;;;;;;;;;;5015368;28;20057;-69
2023/03/24 11:30:31;;;;;;;4.88;1.38;;;;;;;;;;5005718;28;19993;-68
2023/03/24 11:33:02;;;;;;;5.85;1.27;;;;;;;;;;5012580;28;20068;-69
2023/03/24 11:35:30;;;;;;;11.85;1.35;;;;;;;;;;4975024;28;20331;-68
2023/03/24 11:37:59;;;;;;;8.73;1.55;;;;;;;;;;5024092;28;20057;-67
2023/03/24 11:40:26;;;;;;;4.05;1.20;;;;;;;;;;5008370;28;20077;-68
2023/03/24 11:42:54;;;;;;;2.83;1.17;;;;;;;;;;4998845;28;20131;-69
2023/03/24 11:45:26;;;;;;;4.22;1.17;;;;;;;;;;5003005;28;20082;-68
2023/03/24 11:47:55;;;;;;;4.10;1.08;;;;;;;;;;5008295;28;20061;-69
2023/03/24 11:50:27;;;;;;;3.92;1.10;;;;;;;;;;5005164;28;20062;-68
2023/03/24 11:52:56;;;;;;;3.15;0.90;;;;;;;;;;4973581;28;20062;-69
2023/03/24 11:55:27;;;;;;;3.08;0.93;;;;;;;;;;4970466;28;20180;-70
2023/03/24 11:57:57;;;;;;;3.45;1.10;;;;;;;;;;4956977;28;20053;-70
2023/03/24 12:00:26;;;;;;;5.38;1.23;;;;;;;;;;4990787;28;20057;-68
2023/03/24 12:03:01;;;;;;;4.00;0.90;;;;;;;;;;4962621;28;20050;-69
2023/03/24 12:05:38;;;;;;;4.25;1.15;;;;;;;;;;4935534;28;20057;-69
2023/03/24 12:08:13;;;;;;;2.83;0.80;;;;;;;;;;4948428;28;20129;-68
2023/03/24 12:10:49;;;;;;;3.10;1.02;;;;;;;;;;5000061;28;20084;-70
2023/03/24 12:13:22;;;;;;;6.97;1.17;;;;;;;;;;4942751;28;20061;-69
2023/03/24 12:15:58;;;;;;;3.78;1.05;;;;;;;;;;4944518;28;20122;-70
2023/03/24 12:18:36;;;;;;;2.28;0.90;;;;;;;;;;5004353;28;20945;-69
2023/03/24 12:21:08;;;;;;;6.27;1.33;;;;;;;;;;5002950;28;20136;-70
2023/03/24 12:23:46;;;;;;;3.40;1.08;;;;;;;;;;4964134;28;20063;-69
2023/03/24 12:29:51;;;;;;;4.80;0.90;;;;;;;;;;4969071;28;20045;-66
2023/03/24 12:32:49;;;;;;;2.33;0.80;;;;;;;;;;4966685;28;20080;-70
2023/03/24 12:35:48;;;;;;;2.40;0.90;;;;;;;;;;4954196;28;20099;-68
2023/03/24 12:38:38;;;;;;;4.68;1.00;;;;;;;;;;4828001;28;20100;-68
2023/03/24 12:41:27;;;;;;;5.82;1.00;;;;;;;;;;4950161;28;20050;-67
2023/03/24 12:44:06;;;;;;;2.35;0.73;;;;;;;;;;4949623;28;20053;-70
2023/03/24 12:46:48;;;;;;;2.90;0.95;;;;;;;;;;4963723;28;20336;-69
2023/03/24 12:49:22;;;;;;;3.38;1.27;;;;;;;;;;4980590;28;20077;-70
2023/03/24 12:52:13;;;;;;;7.38;0.77;;;;;;;;;;4997096;28;20064;-67
2023/03/24 12:54:45;;;;;;;3.92;0.95;;;;;;;;;;4985050;28;20135;-70
2023/03/24 12:57:21;;;;;;;2.60;0.90;;;;;;;;;;4958054;28;21500;-68
2023/03/24 12:59:56;;;;;;;3.83;1.23;;;;;;;;;;4997391;28;20129;-70
2023/03/24 13:02:26;;;;;;;5.30;1.73;;;;;;;;;;4986425;28;20121;-69
2023/03/24 13:05:03;;;;;;;3.65;1.00;;;;;;;;;;4974694;28;20054;-69
2023/03/24 13:07:32;;;;;;;5.07;1.10;;;;;;;;;;4971510;28;20075;-69
2023/03/24 13:10:04;;;;;;;3.45;0.85;;;;;;;;;;4951716;28;20063;-68
2023/03/24 13:12:32;;;;;;;5.35;1.13;;;;;;;;;;4997427;28;20148;-69
2023/03/24 13:15:02;;;;;;;3.72;0.75;;;;;;;;;;4991265;28;20133;-68
2023/03/24 13:17:34;;;;;;;2.63;1.00;;;;;;;;;;4974555;28;20053;-69
2023/03/24 13:20:05;;;;;;;4.95;1.00;;;;;;;;;;4982039;28;20062;-70
2023/03/24 13:22:44;;;;;;;2.95;1.10;;;;;;;;;;4933387;28;20114;-69
2023/03/24 13:25:25;;;;;;;4.70;1.25;;;;;;;;;;4927084;28;20085;-73
2023/03/24 13:32:50;;;;;;;2.80;1.02;;;;;;;;;;4819939;29;20056;-70
2023/03/24 13:35:27;;;;;;;1.75;0.70;;;;;;;;;;4861164;29;20064;-70
2023/03/24 13:37:56;;;;;;;3.60;1.27;;;;;;;;;;4884578;29;20126;-68
2023/03/24 13:40:28;;;;;;;;;;;;;;;;;;4891684;29;20061;-67
2023/03/24 13:42:58;;;;;;;5.97;1.30;;;;;;;;;;4921109;28;19926;-68
2023/03/24 13:45:29;;;;;;;6.55;1.02;;;;;;;;;;4980157;28;20058;-69
2023/03/24 13:48:20;;;;;;;5.72;1.30;;;;;;;;;;4949730;28;20061;-70
2023/03/24 13:51:11;;;;;;;2.65;1.00;;;;;;;;;;4912625;28;20081;-70
2023/03/24 13:53:41;;;;;;;5.82;1.33;;;;;;;;;;4954594;28;20063;-69
2023/03/24 13:56:17;;;;;;;4.65;1.40;;;;;;;;;;4940515;28;20053;-70
2023/03/24 13:58:49;;;;;;;4.68;1.33;;;;;;;;;;4937012;28;20124;-69
2023/03/24 14:01:31;;;;;;;4.75;1.20;;;;;;;;;;5001493;28;20127;-70
2023/03/24 14:04:16;;;;;;;4.63;1.23;;;;;;;;;;4968668;28;20176;-69
2023/03/24 14:06:51;;;;;;;3.97;1.07;;;;;;;;;;4973793;28;20335;-70
2023/03/24 14:09:24;;;;;;;3.75;1.23;;;;;;;;;;4888856;28;20410;-69
2023/03/24 14:12:16;;;;;;;7.25;1.17;;;;;;;;;;4872874;29;20248;-71
2023/03/24 14:15:00;;;;;;;5.35;1.20;;;;;;;;;;4838122;29;20095;-69
2023/03/24 14:17:44;;;;;;;3.40;1.10;;;;;;;;;;4795575;29;20065;-70
2023/03/24 14:20:27;;;;;;;4.32;1.10;;;;;;;;;;4839526;29;20125;-71
2023/03/24 14:23:05;;;;;;;3.53;1.00;;;;;;;;;;4892003;29;20089;-70
2023/03/24 14:31:20;;;;;;;2.17;0.90;;;;;;;;;;5060094;27;20442;-68
2023/03/24 14:34:09;;;;;;;2.50;0.80;;;;;;;;;;5024640;28;20049;-70
2023/03/24 14:39:39;;;;;;;7.15;1.70;;;;;;;;;;4984300;28;20048;-67
2023/03/24 14:42:21;;;;;;;3.88;1.00;;;;;;;;;;5008541;28;20099;-67
2023/03/24 14:44:56;;;;;;;4.72;0.90;;;;;;;;;;4997339;28;20122;-70
2023/03/24 14:47:26;;;;;;;3.22;1.00;;;;;;;;;;5002657;28;20128;-67
2023/03/24 14:52:30;;;;;;;4.53;0.80;;;;;;;;;;4923412;28;20101;-69
2023/03/24 15:00:10;;;;;;;1.35;0.68;;;;;;;;;;4898323;29;20051;-67
2023/03/24 15:02:45;;;;;;;5.80;0.95;;;;;;;;;;4917525;28;20098;-67
2023/03/24 15:05:33;;;;;;;2.55;0.80;;;;;;;;;;4970803;28;20084;-68
2023/03/24 15:08:03;;;;;;;1.83;0.65;;;;;;;;;;4983222;28;20074;-68
2023/03/24 15:10:33;;;;;;;4.43;0.70;;;;;;;;;;5051075;28;20048;-70
2023/03/24 15:13:00;;;;;;;1.65;0.60;;;;;;;;;;5001461;28;20055;-68
2023/03/24 15:15:29;;;;;;;2.55;0.98;;;;;;;;;;5010149;28;20060;-68
2023/03/24 15:18:01;;;;;;;2.75;0.70;;;;;;;;;;4988500;28;20198;-69
2023/03/24 15:20:31;;;;;;;2.30;0.75;;;;;;;;;;5008214;28;20058;-67
2023/03/24 15:23:06;;;;;;;1.90;0.70;;;;;;;;;;5031885;28;20057;-69
2023/03/24 15:25:32;;;;;;;4.40;0.70;;;;;;;;;;5047275;28;20052;-69
2023/03/24 15:27:59;;;;;;;2.10;0.55;;;;;;;;;;5024161;28;20139;-68
2023/03/24 15:30:27;;;;;;;;;;;;;;;;;;5048919;28;20056;-67
2023/03/24 15:32:54;;;;;;;1.55;0.60;;;;;;;;;;5070744;28;19928;-69